Azamara Quest — V7DM6 — position and weather

sailwx.info

Track history (hours):
 
Tides and Currents Weather Stations Pressure Air Temp Water Temp Dewpoint Dewpoint Depression Visibility Wind Speed Wind Dir Waves Ship Positions

Azamara Quest

Last reported at 2019-Jul-16 10:00 UTC. Time now 2019-Jul-16 10:08 UTC.
Position N 38°01' E 023°31'.

Length 184 m; draft 10.9 m.

Type: Tanker. MMSI: 538005401.

Date/timePositionNaut miles runAvg speedWind from/ knotsBaromVisibWave heightAir tempDewpointWater temp
2019-Jul-16 10:00N 38°01' E 023°31'0 0.1
2019-Jul-16 09:30N 38°01' E 023°31'0 0.1
2019-Jul-16 09:00N 38°01' E 023°31'0 0.1
2019-Jul-16 08:30N 38°01' E 023°31'2 3.7
2019-Jul-16 08:00N 37°59' E 023°33'3 6.2
2019-Jul-16 07:30N 37°57' E 023°35'3 6.6
2019-Jul-16 07:00N 37°54' E 023°37'3 6.9
2019-Jul-16 06:30N 37°51' E 023°39'612.0
2019-Jul-16 06:00N 37°45' E 023°42'612.2
2019-Jul-16 05:30N 37°40' E 023°45'611.9
2019-Jul-16 05:00N 37°34' E 023°47'612.1
2019-Jul-16 04:30N 37°28' E 023°47'811.9
2019-Jul-16 03:48N 37°20' E 023°49'  
2019-Jul-11 00:47N 39°12' E 004°21'614.0
2019-Jul-11 00:20N 39°17' E 004°16'1714.0
2019-Jul-10 23:07N 39°30' E 004°02'1114.1
2019-Jul-10 22:21N 39°38' E 003°53'1013.7
2019-Jul-10 21:38N 39°46' E 003°45'4313.3
2019-Jul-10 18:23N 40°15' E 003°04'1413.9
2019-Jul-10 17:21N 40°23' E 002°48'1313.5
2019-Jul-10 16:22N 40°29' E 002°32'713.1
2019-Jul-10 15:52N 40°32' E 002°25'513.3
2019-Jul-10 15:27N 40°35' E 002°18'613.3
2019-Jul-10 14:59N 40°37' E 002°11'713.4
2019-Jul-10 14:30N 40°40' E 002°03'813.5
2019-Jul-10 13:56N 40°45' E 001°55'613.8
2019-Jul-10 13:30N 40°47' E 001°48'713.8
2019-Jul-10 13:01N 40°50' E 001°40'712.8
2019-Jul-10 12:28N 40°54' E 001°33'712.5
2019-Jul-10 11:55N 40°58' E 001°25'4 0.1
2019-Jul-08 16:19N 41°02' E 001°23'812.7
2019-Jul-08 15:39N 40°59' E 001°34'312.9
2019-Jul-08 15:24N 40°58' E 001°38'513.1
2019-Jul-08 15:01N 40°57' E 001°45'713.3
2019-Jul-08 14:30N 40°55' E 001°53'713.2
2019-Jul-08 14:01N 40°53' E 002°01'612.4
2019-Jul-08 13:30N 40°52' E 002°09'612.4
2019-Jul-08 13:00N 40°50' E 002°17'811.9
2019-Jul-08 12:22N 40°48' E 002°27'1312.6
2019-Jul-08 11:21N 40°45' E 002°43'513.3
2019-Jul-08 11:00N 40°43' E 002°49'713.4
2019-Jul-08 10:29N 40°41' E 002°58'613.5
2019-Jul-08 10:00N 40°40' E 003°06'713.2
2019-Jul-08 09:29N 40°38' E 003°15'712.9
2019-Jul-08 08:56N 40°36' E 003°24'613.0
2019-Jul-08 08:28N 40°34' E 003°31'613.0
2019-Jul-08 08:00N 40°33' E 003°39'912.9
2019-Jul-08 07:19N 40°30' E 003°51'512.6
2019-Jul-08 06:55N 40°29' E 003°57'512.5
2019-Jul-08 06:31N 40°28' E 004°03'7012.4
2019-Jul-08 00:52N 40°02' E 005°29'3212.0
2019-Jul-07 22:12N 39°43' E 006°02'211.2
2019-Jul-07 22:00N 39°41' E 006°04'711.6
2019-Jul-07 21:26N 39°37' E 006°10'8812.4
2019-Jul-07 14:20N 38°40' E 007°38'412.3
2019-Jul-07 14:01N 38°38' E 007°41'612.3
2019-Jul-07 13:29N 38°34' E 007°48'612.3
2019-Jul-07 13:00N 38°30' E 007°54'812.4
2019-Jul-07 12:23N 38°27' E 008°03'512.6
2019-Jul-07 12:00N 38°25' E 008°09'612.5
2019-Jul-07 11:30N 38°23' E 008°16'21812.2
2019-Jul-06 17:39N 36°56' E 012°29'212.1
2019-Jul-06 17:30N 36°55' E 012°31'612.1
2019-Jul-06 17:00N 36°54' E 012°38'612.3
2019-Jul-06 16:30N 36°52' E 012°45'612.4
2019-Jul-06 16:00N 36°50' E 012°52'612.3
2019-Jul-06 15:30N 36°47' E 012°60'612.3
2019-Jul-06 15:00N 36°45' E 013°07'612.1
2019-Jul-06 14:30N 36°44' E 013°14'612.1
2019-Jul-06 14:00N 36°43' E 013°22'612.2
2019-Jul-06 13:30N 36°40' E 013°29'612.0
2019-Jul-06 13:00N 36°38' E 013°35'612.1
2019-Jul-06 12:30N 36°35' E 013°42'612.1
2019-Jul-06 12:00N 36°33' E 013°49'611.9
2019-Jul-06 11:30N 36°32' E 013°57'611.7
2019-Jul-06 11:00N 36°31' E 014°04'611.7
2019-Jul-06 10:30N 36°29' E 014°10'  
Track history (hours):
 
Tides and Currents Weather Stations Pressure Air Temp Water Temp Dewpoint Dewpoint Depression Visibility Wind Speed Wind Dir Waves Ship Positions

Azamara Quest

Last reported at 2019-Jul-16 10:00 UTC. Time now 2019-Jul-16 10:08 UTC.
Position N 38°01' E 023°31'.

Length 184 m; draft 10.9 m.

Type: Tanker. MMSI: 538005401.

Date/timePositionNaut miles runAvg speedWind from/ knotsBaromVisibWave heightAir tempDewpointWater temp
2019-Jul-16 10:00N 38°01' E 023°31'0 0.1
2019-Jul-16 09:30N 38°01' E 023°31'0 0.1
2019-Jul-16 09:00N 38°01' E 023°31'0 0.1
2019-Jul-16 08:30N 38°01' E 023°31'2 3.7
2019-Jul-16 08:00N 37°59' E 023°33'3 6.2
2019-Jul-16 07:30N 37°57' E 023°35'3 6.6
2019-Jul-16 07:00N 37°54' E 023°37'3 6.9
2019-Jul-16 06:30N 37°51' E 023°39'612.0
2019-Jul-16 06:00N 37°45' E 023°42'612.2
2019-Jul-16 05:30N 37°40' E 023°45'611.9
2019-Jul-16 05:00N 37°34' E 023°47'612.1
2019-Jul-16 04:30N 37°28' E 023°47'811.9
2019-Jul-16 03:48N 37°20' E 023°49'  
2019-Jul-11 00:47N 39°12' E 004°21'614.0
2019-Jul-11 00:20N 39°17' E 004°16'1714.0
2019-Jul-10 23:07N 39°30' E 004°02'1114.1
2019-Jul-10 22:21N 39°38' E 003°53'1013.7
2019-Jul-10 21:38N 39°46' E 003°45'4313.3
2019-Jul-10 18:23N 40°15' E 003°04'1413.9
2019-Jul-10 17:21N 40°23' E 002°48'1313.5
2019-Jul-10 16:22N 40°29' E 002°32'713.1
2019-Jul-10 15:52N 40°32' E 002°25'513.3
2019-Jul-10 15:27N 40°35' E 002°18'613.3
2019-Jul-10 14:59N 40°37' E 002°11'713.4
2019-Jul-10 14:30N 40°40' E 002°03'813.5
2019-Jul-10 13:56N 40°45' E 001°55'613.8
2019-Jul-10 13:30N 40°47' E 001°48'713.8
2019-Jul-10 13:01N 40°50' E 001°40'712.8
2019-Jul-10 12:28N 40°54' E 001°33'712.5
2019-Jul-10 11:55N 40°58' E 001°25'4 0.1
2019-Jul-08 16:19N 41°02' E 001°23'812.7
2019-Jul-08 15:39N 40°59' E 001°34'312.9
2019-Jul-08 15:24N 40°58' E 001°38'513.1
2019-Jul-08 15:01N 40°57' E 001°45'713.3
2019-Jul-08 14:30N 40°55' E 001°53'713.2
2019-Jul-08 14:01N 40°53' E 002°01'612.4
2019-Jul-08 13:30N 40°52' E 002°09'612.4
2019-Jul-08 13:00N 40°50' E 002°17'811.9
2019-Jul-08 12:22N 40°48' E 002°27'1312.6
2019-Jul-08 11:21N 40°45' E 002°43'513.3
2019-Jul-08 11:00N 40°43' E 002°49'713.4
2019-Jul-08 10:29N 40°41' E 002°58'613.5
2019-Jul-08 10:00N 40°40' E 003°06'713.2
2019-Jul-08 09:29N 40°38' E 003°15'712.9
2019-Jul-08 08:56N 40°36' E 003°24'613.0
2019-Jul-08 08:28N 40°34' E 003°31'613.0
2019-Jul-08 08:00N 40°33' E 003°39'912.9
2019-Jul-08 07:19N 40°30' E 003°51'512.6
2019-Jul-08 06:55N 40°29' E 003°57'512.5
2019-Jul-08 06:31N 40°28' E 004°03'7012.4
2019-Jul-08 00:52N 40°02' E 005°29'3212.0
2019-Jul-07 22:12N 39°43' E 006°02'211.2
2019-Jul-07 22:00N 39°41' E 006°04'711.6
2019-Jul-07 21:26N 39°37' E 006°10'8812.4
2019-Jul-07 14:20N 38°40' E 007°38'412.3
2019-Jul-07 14:01N 38°38' E 007°41'612.3
2019-Jul-07 13:29N 38°34' E 007°48'612.3
2019-Jul-07 13:00N 38°30' E 007°54'812.4
2019-Jul-07 12:23N 38°27' E 008°03'512.6
2019-Jul-07 12:00N 38°25' E 008°09'612.5
2019-Jul-07 11:30N 38°23' E 008°16'21812.2
2019-Jul-06 17:39N 36°56' E 012°29'212.1
2019-Jul-06 17:30N 36°55' E 012°31'612.1
2019-Jul-06 17:00N 36°54' E 012°38'612.3
2019-Jul-06 16:30N 36°52' E 012°45'612.4
2019-Jul-06 16:00N 36°50' E 012°52'612.3
2019-Jul-06 15:30N 36°47' E 012°60'612.3
2019-Jul-06 15:00N 36°45' E 013°07'612.1
2019-Jul-06 14:30N 36°44' E 013°14'612.1
2019-Jul-06 14:00N 36°43' E 013°22'612.2
2019-Jul-06 13:30N 36°40' E 013°29'612.0
2019-Jul-06 13:00N 36°38' E 013°35'612.1
2019-Jul-06 12:30N 36°35' E 013°42'612.1
2019-Jul-06 12:00N 36°33' E 013°49'611.9
2019-Jul-06 11:30N 36°32' E 013°57'611.7
2019-Jul-06 11:00N 36°31' E 014°04'611.7
2019-Jul-06 10:30N 36°29' E 014°10'  

Dump ship's entire track history